createdAt,value
2023-01-10T00:02:12.967Z,99935.47
2023-01-10T00:04:42.539Z,99936.03
2023-01-10T00:07:10.550Z,99938.75
2023-01-10T00:09:38.927Z,99941.28
2023-01-10T00:12:45.376Z,99935.81
2023-01-10T00:15:13.738Z,99948.47
2023-01-10T00:17:41.783Z,99952.13
2023-01-10T00:20:10.927Z,99944.47
2023-01-10T00:22:38.850Z,99942.78
2023-01-10T00:25:07.455Z,99955.31
2023-01-10T00:27:38.349Z,99952.44
2023-01-10T00:30:15.149Z,99943.69
2023-01-10T00:32:45.299Z,99951.59
2023-01-10T00:35:14.310Z,99951.28
2023-01-10T00:37:42.394Z,99949.25
2023-01-10T00:40:12.319Z,99959.53
2023-01-10T00:42:58.907Z,99950.63
2023-01-10T00:45:27.957Z,99949.78
2023-01-10T00:47:56.014Z,99948.59
2023-01-10T00:50:25.630Z,99953.66
2023-01-10T00:52:53.690Z,99953.75
2023-01-10T00:55:23.117Z,99961.91
2023-01-10T00:57:51.127Z,99958.34
2023-01-10T01:00:19.618Z,99966.47
2023-01-10T01:02:48.939Z,99968.50
2023-01-10T01:05:17.897Z,99962.38
2023-01-10T01:07:51.426Z,99969.88
2023-01-10T01:10:29.103Z,99968.19
2023-01-10T01:13:07.495Z,99965.13
2023-01-10T01:15:36.762Z,99968.03
2023-01-10T01:18:06.267Z,99966.63
2023-01-10T01:20:34.943Z,99976.53
2023-01-10T01:23:04.205Z,99974.97
2023-01-10T01:25:34.045Z,99974.91
2023-01-10T01:28:02.177Z,99974.03
2023-01-10T01:30:30.510Z,99977.34
2023-01-10T01:32:58.521Z,99979.34
2023-01-10T01:35:27.035Z,99977.66
2023-01-10T01:37:55.019Z,99993.44
2023-01-10T01:40:24.165Z,99988.78
2023-01-10T01:42:58.407Z,99996.09
2023-01-10T01:45:26.709Z,100002.56
2023-01-10T01:48:34.716Z,99995.56
2023-01-10T01:51:25.575Z,100000.38
2023-01-10T01:54:00.945Z,100003.03
2023-01-10T01:57:07.517Z,100015.41
2023-01-10T01:59:42.480Z,100014.09
2023-01-10T02:02:17.395Z,100011.03
2023-01-10T02:05:13.663Z,100017.09
2023-01-10T02:07:45.643Z,100022.72
2023-01-10T02:10:20.154Z,100011.31
2023-01-10T02:12:52.497Z,100005.69
2023-01-10T02:15:20.914Z,100007.69
2023-01-10T02:17:51.943Z,100004.63
2023-01-10T02:20:23.276Z,100001.31
2023-01-10T02:23:33.948Z,100005.34
2023-01-10T02:26:14.088Z,100007.09
2023-01-10T02:28:57.599Z,100008.78
2023-01-10T02:31:43.194Z,100010.25
2023-01-10T02:34:22.976Z,100001.22
2023-01-10T02:36:52.044Z,100015.75
2023-01-10T02:39:52.866Z,100018.69
2023-01-10T02:42:42.257Z,100019.69
2023-01-10T02:45:15.516Z,100012.22
2023-01-10T02:47:43.642Z,100016.75
2023-01-10T02:50:24.070Z,100012.59
2023-01-10T02:52:52.707Z,100010.47
2023-01-10T02:55:25.128Z,100024.50
2023-01-10T02:57:59.028Z,100018.59
2023-01-10T03:00:49.975Z,100028.59
2023-01-10T03:03:31.067Z,100026.84
2023-01-10T03:06:32.097Z,100037.53
2023-01-10T03:09:10.466Z,100043.84
2023-01-10T03:11:40.923Z,100045.28
2023-01-10T03:14:16.055Z,100046.88
2023-01-10T03:16:49.418Z,100054.81
2023-01-10T03:19:22.939Z,100067.38
2023-01-10T03:21:54.305Z,100058.13
2023-01-10T03:24:29.147Z,100059.69
2023-01-10T03:27:15.905Z,100072.81
2023-01-10T03:30:26.696Z,100073.66
2023-01-10T03:32:57.682Z,100077.69
2023-01-10T03:35:54.745Z,100076.63
2023-01-10T03:38:38.711Z,100077.41
2023-01-10T03:41:14.266Z,100082.59
2023-01-10T03:44:23.637Z,100079.34
2023-01-10T03:47:03.247Z,100087.31
2023-01-10T03:49:35.963Z,100089.56
2023-01-10T03:52:06.381Z,100094.59
2023-01-10T03:54:35.048Z,100093.41
2023-01-10T03:57:03.093Z,100098.19
2023-01-10T03:59:32.777Z,100101.81
2023-01-10T04:02:00.889Z,100104.06
2023-01-10T04:04:30.087Z,100111.34
2023-01-10T04:06:58.115Z,100110.00
2023-01-10T04:09:26.436Z,100112.41
2023-01-10T04:11:54.411Z,100125.03
2023-01-10T04:14:22.796Z,100119.25
2023-01-10T04:16:50.746Z,100132.22
2023-01-10T04:19:20.068Z,100123.66
2023-01-10T04:21:48.236Z,100131.81
2023-01-10T04:24:16.641Z,100138.88
2023-01-10T04:26:45.022Z,100133.38
2023-01-10T04:29:13.379Z,100129.66
2023-01-10T04:31:41.469Z,100130.69
2023-01-10T04:34:10.398Z,100140.84
2023-01-10T04:36:38.475Z,100144.97
2023-01-10T04:39:07.020Z,100149.75
2023-01-10T04:41:35.815Z,100148.78
2023-01-10T04:44:06.443Z,100149.53
2023-01-10T04:46:34.676Z,100149.00
2023-01-10T04:49:03.166Z,100154.97
2023-01-10T04:51:31.208Z,100165.09
2023-01-10T04:54:00.375Z,100161.38
2023-01-10T04:56:28.416Z,100168.81
2023-01-10T04:58:56.967Z,100179.16
2023-01-10T05:01:26.604Z,100186.44
2023-01-10T05:03:56.264Z,100191.59
2023-01-10T05:06:25.739Z,100182.88
2023-01-10T05:08:53.809Z,100192.69
2023-01-10T05:11:22.096Z,100193.94
2023-01-10T05:13:50.624Z,100196.78
2023-01-10T05:16:19.209Z,100201.88
2023-01-10T05:18:47.255Z,100205.28
2023-01-10T05:21:18.424Z,100208.63
2023-01-10T05:23:46.794Z,100209.69
2023-01-10T05:26:19.094Z,100210.97
2023-01-10T05:28:48.094Z,100210.53
2023-01-10T05:31:18.589Z,100208.75
2023-01-10T05:33:48.885Z,100216.78
2023-01-10T05:36:18.087Z,100217.47
2023-01-10T05:38:46.563Z,100220.78
2023-01-10T05:41:16.173Z,100225.16
2023-01-10T05:43:44.155Z,100234.13
2023-01-10T05:46:12.465Z,100240.72
2023-01-10T05:48:40.474Z,100235.50
2023-01-10T05:51:08.904Z,100240.09
2023-01-10T05:53:36.946Z,100240.47
2023-01-10T05:56:06.455Z,100247.34
2023-01-10T05:58:34.409Z,100258.09
2023-01-10T06:01:02.880Z,100252.97
2023-01-10T06:03:30.951Z,100257.47
2023-01-10T06:05:59.196Z,100259.56
2023-01-10T06:08:27.197Z,100262.28
2023-01-10T06:10:56.144Z,100268.69
2023-01-10T06:13:24.553Z,100277.16
2023-01-10T06:15:52.850Z,100283.81
2023-01-10T06:18:21.245Z,100292.38
2023-01-10T06:20:49.578Z,100296.50
2023-01-10T06:23:17.705Z,100304.78
2023-01-10T06:25:46.237Z,100311.75
2023-01-10T06:28:15.109Z,100314.22
2023-01-10T06:30:43.775Z,100314.16
2023-01-10T06:33:12.654Z,100321.06
2023-01-10T06:35:40.995Z,100329.44
2023-01-10T06:38:09.229Z,100329.84
2023-01-10T06:40:37.535Z,100334.53
2023-01-10T06:43:05.613Z,100343.66
2023-01-10T06:45:33.966Z,100351.28
2023-01-10T06:48:02.226Z,100354.97
2023-01-10T06:50:31.967Z,100364.09
2023-01-10T06:53:05.098Z,100372.34
2023-01-10T06:55:33.507Z,100382.25
2023-01-10T06:58:04.931Z,100390.78
2023-01-10T07:00:34.632Z,100389.28
2023-01-10T07:03:03.074Z,100390.88
2023-01-10T07:05:31.463Z,100404.47
2023-01-10T07:16:19.575Z,100424.06
2023-01-10T07:18:47.647Z,100434.28
2023-01-10T07:21:18.408Z,100429.97
2023-01-10T07:23:50.651Z,100440.00
2023-01-10T07:26:20.301Z,100439.03
2023-01-10T07:28:53.813Z,100442.66
2023-01-10T07:31:24.065Z,100445.78
2023-01-10T07:33:52.650Z,100447.25
2023-01-10T07:36:21.106Z,100462.53
2023-01-10T07:38:49.157Z,100472.88
2023-01-10T07:41:17.605Z,100470.91
2023-01-10T07:43:45.666Z,100474.13
2023-01-10T07:46:14.575Z,100466.84
2023-01-10T07:48:42.829Z,100476.50
2023-01-10T07:51:11.172Z,100484.47
2023-01-10T07:53:39.562Z,100499.00
2023-01-10T07:56:08.965Z,100491.19
2023-01-10T07:58:37.205Z,100507.97
2023-01-10T08:01:07.809Z,100503.88
2023-01-10T08:03:36.948Z,100511.97
2023-01-10T08:06:10.500Z,100519.50
2023-01-10T08:08:39.165Z,100537.50
2023-01-10T08:11:08.004Z,100544.47
2023-01-10T08:13:36.019Z,100552.75
2023-01-10T08:16:07.361Z,100546.13
2023-01-10T08:18:35.561Z,100556.91
2023-01-10T08:21:05.366Z,100571.06
2023-01-10T08:23:33.355Z,100568.47
2023-01-10T08:26:02.290Z,100571.59
2023-01-10T08:28:30.528Z,100586.56
2023-01-10T08:31:06.149Z,100595.34
2023-01-10T08:33:34.241Z,100593.72
2023-01-10T08:36:02.625Z,100593.56
2023-01-10T08:38:30.637Z,100598.47
2023-01-10T08:40:59.243Z,100609.09
2023-01-10T08:43:27.746Z,100606.28
2023-01-10T08:45:56.096Z,100608.22
2023-01-10T08:48:25.008Z,100611.03
2023-01-10T08:50:53.420Z,100614.56
2023-01-10T08:53:21.455Z,100616.50
2023-01-10T08:55:51.101Z,100614.94
2023-01-10T08:58:19.058Z,100624.47
2023-01-10T09:00:47.390Z,100633.09
2023-01-10T09:03:15.523Z,100642.06
2023-01-10T09:05:43.889Z,100654.09
2023-01-10T09:08:12.408Z,100656.94
2023-01-10T09:10:41.856Z,100657.25
2023-01-10T09:13:09.942Z,100668.47
2023-01-10T09:15:38.968Z,100668.56
2023-01-10T09:18:08.147Z,100680.88
2023-01-10T09:20:38.554Z,100671.22
2023-01-10T09:23:19.297Z,100685.28
2023-01-10T09:25:51.523Z,100687.34
2023-01-10T09:28:21.615Z,100677.22
2023-01-10T09:30:50.356Z,100694.03
2023-01-10T09:33:20.665Z,100693.28
2023-01-10T09:35:49.312Z,100704.63
2023-01-10T09:38:19.486Z,100710.53
2023-01-10T09:41:12.718Z,100716.19
2023-01-10T09:44:06.975Z,100730.19
2023-01-10T09:53:19.319Z,100758.94
2023-01-10T09:55:53.318Z,100767.28
2023-01-10T09:58:28.067Z,100763.88
2023-01-10T10:01:05.093Z,100757.84
2023-01-10T10:03:45.584Z,100760.81
2023-01-10T10:06:15.410Z,100761.56
2023-01-10T10:08:45.879Z,100767.47
2023-01-10T10:11:25.827Z,100767.50
2023-01-10T10:14:31.440Z,100770.88
2023-01-10T10:17:27.814Z,100777.56
2023-01-10T10:20:11.978Z,100787.38
2023-01-10T10:23:17.146Z,100790.16
2023-01-10T10:26:28.633Z,100790.03
2023-01-10T10:29:10.327Z,100786.72
2023-01-10T10:31:47.678Z,100790.03
2023-01-10T10:34:36.949Z,100792.28
2023-01-10T10:37:34.037Z,100793.94
2023-01-10T10:40:16.797Z,100807.59
2023-01-10T10:42:50.816Z,100807.16
2023-01-10T10:45:35.513Z,100788.72
2023-01-10T10:48:22.189Z,100792.13
2023-01-10T10:50:55.996Z,100801.38
2023-01-10T10:53:24.384Z,100798.28
2023-01-10T10:55:53.673Z,100795.19
2023-01-10T10:58:22.150Z,100801.28
2023-01-10T11:00:50.238Z,100795.47
2023-01-10T11:04:09.278Z,100787.16
2023-01-10T11:06:40.975Z,100787.16
2023-01-10T11:09:10.357Z,100780.31
2023-01-10T11:11:45.196Z,100773.59
2023-01-10T11:14:13.997Z,100769.31
2023-01-10T11:16:45.457Z,100780.28
2023-01-10T11:19:30.316Z,100785.44
2023-01-10T11:22:04.337Z,100795.16
2023-01-10T11:25:01.669Z,100793.50
2023-01-10T11:27:47.027Z,100802.94
2023-01-10T11:30:36.824Z,100794.28
2023-01-10T11:33:08.048Z,100795.28
2023-01-10T11:35:42.344Z,100795.44
2023-01-10T11:38:30.420Z,100790.13
2023-01-10T11:41:00.623Z,100795.50
2023-01-10T11:43:34.186Z,100789.19
2023-01-10T11:46:17.691Z,100799.13
2023-01-10T11:49:12.922Z,100796.97
2023-01-10T11:51:48.634Z,100791.00
2023-01-10T11:54:21.008Z,100803.41
2023-01-10T11:56:57.230Z,100817.22
2023-01-10T11:59:27.285Z,100811.75
2023-01-10T12:02:05.688Z,100812.53
2023-01-10T12:04:40.855Z,100811.84
2023-01-10T12:07:12.472Z,100809.47
2023-01-10T12:09:46.403Z,100820.19
2023-01-10T12:12:19.461Z,100810.91
2023-01-10T12:14:48.971Z,100805.69
2023-01-10T12:17:23.328Z,100809.03
2023-01-10T12:19:53.597Z,100812.16
2023-01-10T12:22:45.653Z,100806.28
2023-01-10T12:25:26.381Z,100810.94
2023-01-10T12:27:57.651Z,100813.28
2023-01-10T12:30:34.534Z,100804.16
2023-01-10T12:33:13.513Z,100804.94
2023-01-10T12:36:16.479Z,100811.88
2023-01-10T12:42:24.046Z,100822.53
2023-01-10T12:45:08.819Z,100829.19
2023-01-10T12:47:55.028Z,100831.00
2023-01-10T12:50:41.632Z,100833.66
2023-01-10T12:53:09.559Z,100830.25
2023-01-10T12:55:46.009Z,100835.19
2023-01-10T12:58:22.307Z,100842.28
2023-01-10T13:00:59.582Z,100841.19
2023-01-10T13:03:34.411Z,100843.88
2023-01-10T13:06:04.199Z,100845.81
2023-01-10T13:08:36.299Z,100847.16
2023-01-10T13:11:07.058Z,100857.00
2023-01-10T13:13:40.809Z,100859.66
2023-01-10T13:16:40.672Z,100869.22
2023-01-10T13:19:11.418Z,100865.50
2023-01-10T13:21:42.532Z,100859.50
2023-01-10T13:24:17.795Z,100863.13
2023-01-10T13:26:54.110Z,100872.69
2023-01-10T13:29:29.887Z,100866.75
2023-01-10T13:32:02.201Z,100863.72
2023-01-10T13:34:35.854Z,100863.13
2023-01-10T13:37:35.884Z,100861.97
2023-01-10T13:40:05.888Z,100859.09
2023-01-10T13:42:54.574Z,100861.00
2023-01-10T13:45:28.622Z,100858.72
2023-01-10T13:47:59.824Z,100863.00
2023-01-10T13:50:34.153Z,100852.88
2023-01-10T13:53:07.244Z,100849.75
2023-01-10T13:58:59.803Z,100868.63
2023-01-10T14:01:56.581Z,100863.50
2023-01-10T14:04:32.048Z,100868.16
2023-01-10T14:07:05.157Z,100871.56
2023-01-10T14:09:39.982Z,100872.50
2023-01-10T14:12:17.781Z,100879.88
2023-01-10T14:15:07.621Z,100883.81
2023-01-10T14:17:38.205Z,100882.63
2023-01-10T14:20:19.581Z,100886.75
2023-01-10T14:23:05.323Z,100881.69
2023-01-10T14:25:36.876Z,100897.38
2023-01-10T14:28:16.622Z,100897.75
2023-01-10T14:30:46.104Z,100905.41
2023-01-10T14:33:22.054Z,100905.38
2023-01-10T14:35:56.705Z,100904.94
2023-01-10T14:38:33.850Z,100903.28
2023-01-10T14:41:07.084Z,100899.75
2023-01-10T14:43:45.769Z,100908.66
2023-01-10T14:46:43.406Z,100906.16
2023-01-10T14:49:41.453Z,100900.53
2023-01-10T14:52:14.518Z,100902.88
2023-01-10T14:54:42.525Z,100913.28
2023-01-10T14:57:22.610Z,100913.03
2023-01-10T15:00:03.007Z,100913.91
2023-01-10T15:02:31.978Z,100926.16
2023-01-10T15:05:09.930Z,100923.94
2023-01-10T15:07:38.523Z,100919.88
2023-01-10T15:10:18.343Z,100924.38
2023-01-10T15:12:47.543Z,100927.50
2023-01-10T15:15:23.740Z,100916.66
2023-01-10T15:17:52.206Z,100916.69
2023-01-10T15:20:21.886Z,100924.28
2023-01-10T15:23:01.225Z,100920.56
2023-01-10T15:25:38.326Z,100922.97
2023-01-10T15:28:16.574Z,100919.66
2023-01-10T15:30:45.180Z,100927.75
2023-01-10T15:33:17.655Z,100925.81
2023-01-10T15:35:46.043Z,100927.81
2023-01-10T15:38:21.129Z,100935.78
2023-01-10T15:41:03.837Z,100938.84
2023-01-10T15:43:37.255Z,100939.25
2023-01-10T15:46:17.555Z,100945.47
2023-01-10T15:48:56.571Z,100943.59
2023-01-10T15:51:37.964Z,100948.88
2023-01-10T15:54:29.529Z,100937.19
2023-01-10T15:57:07.919Z,100953.31
2023-01-10T15:59:51.764Z,100960.97
2023-01-10T16:02:29.358Z,100955.94
2023-01-10T16:05:05.900Z,100956.38
2023-01-10T16:07:36.249Z,100958.72
2023-01-10T16:10:08.310Z,100971.88
2023-01-10T16:13:01.038Z,100974.94
2023-01-10T16:15:32.083Z,100980.75
2023-01-10T16:18:00.438Z,100992.59
2023-01-10T16:20:35.737Z,100994.66
2023-01-10T16:23:08.985Z,100990.91
2023-01-10T16:25:45.158Z,100997.31
2023-01-10T16:28:17.054Z,100989.34
2023-01-10T16:30:47.202Z,100996.78
2023-01-10T16:33:24.680Z,100996.16
2023-01-10T16:35:55.313Z,100987.69
2023-01-10T16:38:27.762Z,100990.09
2023-01-10T16:41:22.067Z,100986.09
2023-01-10T16:43:52.214Z,100990.25
2023-01-10T16:46:20.642Z,100985.41
2023-01-10T16:48:50.256Z,100993.63
2023-01-10T16:51:24.051Z,100990.47
2023-01-10T16:53:52.918Z,100982.22
2023-01-10T16:56:24.012Z,100981.84
2023-01-10T16:58:55.130Z,100978.16
2023-01-10T17:01:30.225Z,100973.53
2023-01-10T17:03:59.387Z,100974.00
2023-01-10T17:06:27.440Z,100983.22
2023-01-10T17:08:56.889Z,100987.56
2023-01-10T17:11:33.861Z,100994.81
2023-01-10T17:14:04.639Z,100999.94
2023-01-10T17:16:32.887Z,101004.44
2023-01-10T17:19:02.661Z,101012.72
2023-01-10T17:21:30.596Z,101024.44
2023-01-10T17:23:58.958Z,101031.41
2023-01-10T17:26:26.838Z,101024.72
2023-01-10T17:28:55.629Z,101036.41
2023-01-10T17:31:23.726Z,101039.38
2023-01-10T17:33:52.556Z,101032.06
2023-01-10T17:36:22.625Z,101030.50
2023-01-10T17:38:51.019Z,101040.91
2023-01-10T17:41:19.091Z,101031.81
2023-01-10T17:43:47.543Z,101030.50
2023-01-10T17:46:17.478Z,101027.81
2023-01-10T17:48:47.005Z,101027.56
2023-01-10T17:51:14.985Z,101017.59
2023-01-10T17:53:43.515Z,101029.94
2023-01-10T17:56:11.942Z,101023.59
2023-01-10T17:58:40.367Z,101027.09
2023-01-10T18:01:19.306Z,101036.38
2023-01-10T18:03:47.838Z,101031.16
2023-01-10T18:06:23.731Z,101034.25
2023-01-10T18:08:54.037Z,101030.06
2023-01-10T18:11:25.380Z,101038.78
2023-01-10T18:13:54.980Z,101039.03
2023-01-10T18:16:25.030Z,101041.38
2023-01-10T18:18:54.579Z,101039.22
2023-01-10T18:21:22.568Z,101037.13
2023-01-10T18:23:57.138Z,101046.31
2023-01-10T18:26:25.190Z,101050.56
2023-01-10T18:28:54.647Z,101055.13
2023-01-10T18:31:22.898Z,101047.22
2023-01-10T18:33:54.388Z,101051.22
2023-01-10T18:36:24.747Z,101048.81
2023-01-10T18:38:54.443Z,101046.78
2023-01-10T18:41:22.530Z,101054.97
2023-01-10T18:43:50.838Z,101048.97
2023-01-10T18:46:22.911Z,101054.97
2023-01-10T18:48:54.302Z,101058.88
2023-01-10T18:51:23.399Z,101057.63
2023-01-10T18:53:53.237Z,101055.53
2023-01-10T18:56:21.464Z,101058.22
2023-01-10T18:58:49.923Z,101058.41
2023-01-10T19:01:20.942Z,101069.75
2023-01-10T19:03:50.608Z,101061.66
2023-01-10T19:06:22.875Z,101066.09
2023-01-10T19:08:51.793Z,101061.56
2023-01-10T19:11:20.566Z,101063.84
2023-01-10T19:13:52.266Z,101067.69
2023-01-10T19:16:26.364Z,101072.84
2023-01-10T19:19:01.141Z,101078.91
2023-01-10T19:21:31.970Z,101074.38
2023-01-10T19:24:03.916Z,101079.50
2023-01-10T19:26:33.170Z,101082.53
2023-01-10T19:29:04.357Z,101081.34
2023-01-10T19:31:34.450Z,101081.34
2023-01-10T19:34:02.557Z,101087.28
2023-01-10T19:36:34.942Z,101093.69
2023-01-10T19:39:05.403Z,101093.19
2023-01-10T19:41:37.469Z,101096.28
2023-01-10T19:44:13.900Z,101100.34
2023-01-10T19:46:44.295Z,101101.56
2023-01-10T19:49:17.694Z,101099.75
2023-01-10T19:51:51.507Z,101099.38
2023-01-10T19:54:20.504Z,101105.88
2023-01-10T19:56:50.377Z,101101.75
2023-01-10T19:59:18.793Z,101104.66
2023-01-10T20:01:48.096Z,101108.03
2023-01-10T20:04:16.127Z,101103.47
2023-01-10T20:06:45.704Z,101105.44
2023-01-10T20:09:14.591Z,101104.91
2023-01-10T20:11:46.303Z,101117.78
2023-01-10T20:14:18.024Z,101105.13
2023-01-10T20:16:49.086Z,101100.22
2023-01-10T20:19:17.661Z,101095.13
2023-01-10T20:21:47.066Z,101102.44
2023-01-10T20:24:22.074Z,101102.63
2023-01-10T20:26:53.830Z,101105.69
2023-01-10T20:29:23.022Z,101113.53
2023-01-10T20:31:57.274Z,101113.00
2023-01-10T20:34:26.377Z,101119.88
2023-01-10T20:36:56.534Z,101113.94
2023-01-10T20:39:31.625Z,101114.03
2023-01-10T20:42:00.944Z,101110.47
2023-01-10T20:44:30.897Z,101116.69
2023-01-10T20:47:00.199Z,101123.91
2023-01-10T20:49:29.106Z,101109.78
2023-01-10T20:51:59.037Z,101116.09
2023-01-10T20:54:28.170Z,101114.28
2023-01-10T20:56:58.678Z,101104.88
2023-01-10T20:59:29.996Z,101111.72
2023-01-10T21:01:59.621Z,101116.38
2023-01-10T21:04:28.834Z,101118.25
2023-01-10T21:06:57.499Z,101130.16
2023-01-10T21:09:26.017Z,101140.53
2023-01-10T21:12:04.381Z,101134.25
2023-01-10T21:14:38.812Z,101136.56
2023-01-10T21:17:07.276Z,101132.31
2023-01-10T21:19:35.234Z,101132.09
2023-01-10T21:22:03.860Z,101139.38
2023-01-10T21:24:31.889Z,101142.63
2023-01-10T21:27:00.145Z,101140.75
2023-01-10T21:29:28.396Z,101151.34
2023-01-10T21:31:56.839Z,101155.19
2023-01-10T21:34:25.135Z,101165.88
2023-01-10T21:36:54.650Z,101154.50
2023-01-10T21:39:22.682Z,101154.13
2023-01-10T21:42:09.390Z,101158.75
2023-01-10T21:44:37.489Z,101161.03
2023-01-10T21:47:05.774Z,101157.66
2023-01-10T21:49:33.767Z,101160.81
2023-01-10T21:52:03.299Z,101157.75
2023-01-10T21:54:32.306Z,101155.78
2023-01-10T21:57:00.736Z,101159.59
2023-01-10T21:59:28.727Z,101157.56
2023-01-10T22:01:57.072Z,101171.28
2023-01-10T22:04:25.166Z,101180.63
2023-01-10T22:06:53.531Z,101179.41
2023-01-10T22:09:21.546Z,101175.88
2023-01-10T22:11:49.886Z,101179.69
2023-01-10T22:14:17.912Z,101178.41
2023-01-10T22:16:46.206Z,101178.91
2023-01-10T22:19:14.174Z,101175.72
2023-01-10T22:21:42.455Z,101173.91
2023-01-10T22:24:10.449Z,101185.16
2023-01-10T22:26:39.066Z,101189.66
2023-01-10T22:29:07.103Z,101186.19
2023-01-10T22:31:35.787Z,101187.59
2023-01-10T22:34:03.758Z,101184.41
2023-01-10T22:36:32.109Z,101193.81
2023-01-10T22:39:00.007Z,101188.59
2023-01-10T22:41:29.122Z,101197.00
2023-01-10T22:43:57.641Z,101197.88
2023-01-10T22:46:27.920Z,101194.19
2023-01-10T22:48:56.527Z,101193.63
2023-01-10T22:51:25.499Z,101188.59
2023-01-10T22:53:56.942Z,101179.06
2023-01-10T22:56:25.985Z,101183.47
2023-01-10T22:58:54.004Z,101176.03
2023-01-10T23:01:25.278Z,101170.66
2023-01-10T23:03:53.318Z,101151.91
2023-01-10T23:06:22.321Z,101148.53
2023-01-10T23:08:51.828Z,101150.38
2023-01-10T23:11:22.494Z,101153.25
2023-01-10T23:13:50.667Z,101148.75
2023-01-10T23:16:28.854Z,101150.59
2023-01-10T23:18:57.704Z,101150.31
2023-01-10T23:21:29.607Z,101140.47
2023-01-10T23:23:57.701Z,101151.19
2023-01-10T23:26:26.040Z,101153.34
2023-01-10T23:28:54.452Z,101153.28
2023-01-10T23:31:24.925Z,101162.25
2023-01-10T23:33:53.016Z,101160.94
2023-01-10T23:36:22.350Z,101161.56
2023-01-10T23:38:50.906Z,101165.84
2023-01-10T23:41:21.351Z,101164.72
2023-01-10T23:43:50.961Z,101163.81
2023-01-10T23:46:19.389Z,101165.91
2023-01-10T23:48:48.616Z,101171.88
2023-01-10T23:51:16.952Z,101168.69
2023-01-10T23:53:44.931Z,101171.44
2023-01-10T23:56:15.521Z,101170.38
2023-01-10T23:58:43.643Z,101182.22
